createdAt,value
2023-05-14T00:01:18.362Z,99.9
2023-05-14T00:03:18.108Z,99.9
2023-05-14T00:05:17.716Z,99.9
2023-05-14T00:09:17.105Z,99.9
2023-05-14T00:13:19.884Z,99.9
2023-05-14T00:15:19.585Z,99.9
2023-05-14T00:19:18.937Z,99.9
2023-05-14T00:21:18.681Z,99.9
2023-05-14T00:23:18.352Z,99.9
2023-05-14T00:25:21.484Z,99.9
2023-05-14T00:27:21.184Z,99.9
2023-05-14T00:30:22.710Z,99.9
2023-05-14T00:32:22.167Z,99.9
2023-05-14T00:38:24.694Z,99.9
2023-05-14T00:40:24.685Z,99.9
2023-05-14T00:42:24.073Z,99.9
2023-05-14T00:46:23.516Z,99.9
2023-05-14T00:50:23.038Z,99.9
2023-05-14T00:54:25.675Z,99.9
2023-05-14T00:56:25.372Z,99.9
2023-05-14T01:06:27.304Z,99.9
2023-05-14T01:08:27.010Z,99.9
2023-05-14T01:10:26.933Z,99.9
2023-05-14T01:14:26.109Z,99.9
2023-05-14T01:16:25.886Z,99.9
2023-05-14T01:22:28.377Z,99.9
2023-05-14T01:24:28.089Z,99.9
2023-05-14T01:25:29.612Z,99.9
2023-05-14T01:39:31.053Z,99.9
2023-05-14T01:41:30.756Z,99.9
2023-05-14T01:43:30.516Z,99.9
2023-05-14T01:45:30.198Z,99.9
2023-05-14T01:49:33.065Z,99.9
2023-05-14T01:51:32.820Z,99.9
2023-05-14T01:53:32.499Z,99.9
2023-05-14T01:55:32.228Z,99.9
2023-05-14T01:57:31.986Z,99.9
2023-05-14T01:59:31.685Z,99.9
2023-05-14T02:01:34.833Z,99.9
2023-05-14T02:03:34.586Z,99.9
2023-05-14T02:05:34.259Z,99.9
2023-05-14T02:15:36.380Z,99.9
2023-05-14T02:20:37.887Z,99.9
2023-05-14T02:22:37.634Z,99.9
2023-05-14T02:24:37.391Z,99.9
2023-05-14T02:26:37.092Z,99.9
2023-05-14T02:28:40.303Z,99.9
2023-05-14T02:30:39.983Z,99.9
2023-05-14T02:32:39.826Z,99.9
2023-05-14T02:34:39.476Z,99.9
2023-05-14T02:36:39.211Z,99.9
2023-05-14T02:38:38.918Z,99.9
2023-05-14T02:42:41.806Z,99.9
2023-05-14T02:48:41.057Z,99.9
2023-05-14T02:50:40.792Z,99.9
2023-05-14T02:52:40.543Z,99.9
2023-05-14T02:56:43.437Z,99.9
2023-05-14T03:00:42.923Z,99.9
2023-05-14T03:02:42.863Z,99.9
2023-05-14T03:04:42.423Z,99.9
2023-05-14T03:06:42.175Z,99.9
2023-05-14T03:16:59.921Z,99.9
2023-05-14T03:20:59.433Z,99.9
2023-05-14T03:23:02.528Z,99.9
2023-05-14T03:25:02.254Z,99.9
2023-05-14T03:27:02.029Z,99.9
2023-05-14T03:31:01.584Z,99.9
2023-05-14T03:33:01.307Z,99.9
2023-05-14T03:35:01.008Z,99.9
2023-05-14T03:39:03.940Z,99.9
2023-05-14T03:41:03.676Z,99.9
2023-05-14T03:43:03.481Z,99.9
2023-05-14T03:45:03.218Z,99.9
2023-05-14T03:49:02.878Z,99.9
2023-05-14T03:51:05.947Z,99.9
2023-05-14T03:53:05.686Z,99.9
2023-05-14T03:55:05.502Z,99.9
2023-05-14T03:57:05.257Z,99.9
2023-05-14T03:59:05.034Z,99.9
2023-05-14T04:01:04.783Z,99.9
2023-05-14T04:05:07.720Z,99.9
2023-05-14T04:10:08.818Z,99.9
2023-05-14T04:14:08.381Z,99.9
2023-05-14T04:16:08.182Z,99.9
2023-05-14T04:18:11.319Z,99.9
2023-05-14T04:20:11.081Z,99.9
2023-05-14T04:24:10.618Z,99.9
2023-05-14T04:26:11.955Z,99.9
2023-05-14T04:28:11.668Z,99.9
2023-05-14T04:30:11.425Z,99.9
2023-05-14T04:34:14.423Z,99.9
2023-05-14T04:36:14.104Z,99.9
2023-05-14T04:52:15.638Z,99.9
2023-05-14T04:54:15.421Z,99.9
2023-05-14T04:56:15.122Z,99.9
2023-05-14T04:58:14.899Z,99.9
2023-05-14T05:00:18.038Z,99.9
2023-05-14T05:05:19.093Z,99.9
2023-05-14T05:07:18.798Z,99.9
2023-05-14T05:11:18.297Z,99.9
2023-05-14T05:13:21.366Z,99.9
2023-05-14T05:15:21.055Z,99.9
2023-05-14T05:19:24.353Z,99.9
2023-05-14T05:21:20.197Z,99.9
2023-05-14T05:23:19.957Z,99.9
2023-05-14T05:25:19.619Z,99.9
2023-05-14T05:33:21.769Z,99.9
2023-05-14T05:35:21.465Z,99.9
2023-05-14T05:37:21.117Z,99.9
2023-05-14T05:41:23.830Z,99.9
2023-05-14T05:53:21.685Z,99.9
2023-05-14T05:55:24.689Z,99.9
2023-05-14T05:57:26.325Z,99.9
2023-05-14T06:00:25.738Z,99.9
2023-05-14T06:02:25.272Z,99.9
2023-05-14T06:12:26.361Z,99.9
2023-05-14T06:16:25.548Z,99.9
2023-05-14T06:22:27.628Z,99.9
2023-05-14T06:30:26.092Z,99.9
2023-05-14T06:32:25.440Z,99.9
2023-05-14T06:34:25.029Z,99.9
2023-05-14T06:36:27.981Z,99.9
2023-05-14T06:40:27.155Z,99.9
2023-05-14T06:42:26.679Z,99.9
2023-05-14T06:44:26.268Z,99.9
2023-05-14T06:48:25.513Z,99.9
2023-05-14T06:50:28.427Z,99.9
2023-05-14T06:52:28.054Z,99.9
2023-05-14T06:54:27.636Z,99.9
2023-05-14T06:56:49.007Z,99.9
2023-05-14T07:00:48.140Z,99.9
2023-05-14T07:02:51.097Z,99.9
2023-05-14T07:04:50.571Z,99.9
2023-05-14T07:08:49.669Z,99.9
2023-05-14T07:12:48.689Z,99.9
2023-05-14T07:14:48.218Z,99.9
2023-05-14T07:34:48.818Z,99.9
2023-05-14T07:36:48.205Z,99.9
2023-05-14T07:38:47.638Z,99.9
2023-05-14T07:40:47.014Z,99.2
2023-05-14T07:42:46.343Z,98.6
2023-05-14T07:46:48.391Z,91.5
2023-05-14T07:59:48.834Z,92.6
2023-05-14T08:01:48.077Z,90.3
2023-05-14T08:03:47.448Z,85.9
2023-05-14T08:05:46.531Z,85.4
2023-05-14T08:09:45.013Z,84.5
2023-05-14T08:13:46.701Z,84.7
2023-05-14T08:17:45.054Z,90.3
2023-05-14T08:23:42.502Z,90.9
2023-05-14T08:25:44.993Z,88.4
2023-05-14T08:31:42.447Z,87
2023-05-14T08:33:41.603Z,87
2023-05-14T08:37:39.861Z,80.5
2023-05-14T08:39:42.341Z,81.9
2023-05-14T08:41:41.455Z,81.9
2023-05-14T08:44:41.815Z,84.8
2023-05-14T08:54:40.635Z,73.5
2023-05-14T09:06:38.457Z,72.9
2023-05-14T09:08:37.461Z,72.7
2023-05-14T09:10:36.559Z,72.8
2023-05-14T09:12:35.592Z,72.8
2023-05-14T09:16:33.704Z,71.2
2023-05-14T09:34:31.373Z,72.2
2023-05-14T09:36:30.358Z,72.1
2023-05-14T09:38:29.313Z,72.5
2023-05-14T09:39:30.525Z,72.3
2023-05-14T09:41:29.580Z,72.4
2023-05-14T09:45:27.452Z,72.2
2023-05-14T09:47:29.969Z,72.7
2023-05-14T09:49:28.793Z,73.3
2023-05-14T09:51:27.753Z,72.4
2023-05-14T09:53:26.745Z,72.4
2023-05-14T09:55:25.713Z,72.1
2023-05-14T09:57:24.709Z,72.4
2023-05-14T09:59:23.651Z,73.5
2023-05-14T10:01:26.097Z,73.8
2023-05-14T10:05:24.004Z,72.1
2023-05-14T10:11:22.444Z,74.6
2023-05-14T10:19:21.949Z,73.9
2023-05-14T10:21:20.609Z,73.8
2023-05-14T10:23:19.618Z,68.7
2023-05-14T10:25:18.600Z,68.1
2023-05-14T10:27:17.609Z,67.8
2023-05-14T10:29:19.912Z,64.3
2023-05-14T10:41:32.764Z,65.8
2023-05-14T10:43:31.712Z,65.8
2023-05-14T10:45:30.696Z,66.2
2023-05-14T10:47:29.707Z,68.6
2023-05-14T10:49:42.479Z,68.5
2023-05-14T10:51:27.717Z,68.2
2023-05-14T10:59:26.842Z,64.2
2023-05-14T11:01:25.863Z,64.1
2023-05-14T11:03:24.765Z,63.6
2023-05-14T11:05:23.671Z,63.8
2023-05-14T11:07:22.651Z,63.7
2023-05-14T11:11:23.927Z,65.3
2023-05-14T11:13:22.891Z,66.2
2023-05-14T11:15:21.741Z,65.9
2023-05-14T11:17:20.719Z,65.5
2023-05-14T11:19:19.629Z,65.1
2023-05-14T11:21:18.647Z,64.6
2023-05-14T11:23:20.875Z,64.5
2023-05-14T11:25:19.815Z,64.4
2023-05-14T11:30:18.907Z,63.8
2023-05-14T11:32:17.772Z,63.6
2023-05-14T11:34:16.720Z,63.2
2023-05-14T11:38:17.958Z,59.3
2023-05-14T11:40:17.097Z,59.4
2023-05-14T11:42:15.737Z,58.4
2023-05-14T11:58:10.514Z,55.4
2023-05-14T12:00:09.443Z,56.6
2023-05-14T12:02:08.436Z,56.4
2023-05-14T12:04:10.796Z,55.7
2023-05-14T12:06:09.624Z,55.4
2023-05-14T12:08:08.612Z,53.7
2023-05-14T12:10:07.594Z,52.7
2023-05-14T12:12:06.493Z,52.5
2023-05-14T12:14:05.455Z,52
2023-05-14T12:16:04.394Z,52
2023-05-14T12:18:16.927Z,51.8
2023-05-14T12:20:05.701Z,51.7
2023-05-14T12:22:04.678Z,51.6
2023-05-14T12:23:05.875Z,51.3
2023-05-14T12:25:04.836Z,51.4
2023-05-14T12:27:03.792Z,51.5
2023-05-14T12:29:02.794Z,51.4
2023-05-14T12:31:05.190Z,51.2
2023-05-14T12:33:04.208Z,50.9
2023-05-14T12:35:03.150Z,50.3
2023-05-14T12:39:01.174Z,49.4
2023-05-14T12:41:00.126Z,49.5
2023-05-14T12:45:01.530Z,53.2
2023-05-14T12:48:59.561Z,53.5
2023-05-14T12:50:58.549Z,53.6
2023-05-14T12:52:57.535Z,52.3
2023-05-14T13:08:52.928Z,52.4
2023-05-14T13:16:52.386Z,53.3
2023-05-14T13:17:53.564Z,52.7
2023-05-14T13:21:51.510Z,51.7
2023-05-14T13:23:50.535Z,51.4
2023-05-14T13:25:52.877Z,49.7
2023-05-14T13:27:51.902Z,48.9
2023-05-14T13:31:49.893Z,47.2
2023-05-14T13:35:47.888Z,47
2023-05-14T13:37:46.895Z,46.4
2023-05-14T13:39:51.316Z,40.7
2023-05-14T13:41:48.262Z,40.4
2023-05-14T13:43:47.263Z,40.7
2023-05-14T13:45:46.307Z,40.9
2023-05-14T13:49:44.381Z,42.2
2023-05-14T13:51:43.465Z,42.3
2023-05-14T13:53:45.862Z,43.8
2023-05-14T13:55:45.855Z,44.7
2023-05-14T13:57:43.974Z,45.2
2023-05-14T13:59:43.070Z,45.3
2023-05-14T14:01:42.191Z,43.4
2023-05-14T14:03:41.213Z,43
2023-05-14T14:05:40.329Z,42.4
2023-05-14T14:07:42.796Z,40.6
2023-05-14T14:09:41.848Z,40.2
2023-05-14T14:11:40.967Z,39.8
2023-05-14T14:13:59.303Z,40.7
2023-05-14T14:15:58.419Z,41
2023-05-14T14:17:57.544Z,41.6
2023-05-14T14:19:59.981Z,42.1
2023-05-14T14:21:59.101Z,42.3
2023-05-14T14:23:58.243Z,42.3
2023-05-14T14:25:57.374Z,42.4
2023-05-14T14:31:54.785Z,40.6
2023-05-14T14:33:57.270Z,39.7
2023-05-14T14:35:56.450Z,39.5
2023-05-14T14:37:55.620Z,39.4
2023-05-14T14:39:54.746Z,39.6
2023-05-14T14:41:53.895Z,40.3
2023-05-14T14:43:53.043Z,40.7
2023-05-14T14:45:52.243Z,41
2023-05-14T14:47:54.738Z,39.5
2023-05-14T14:51:53.027Z,37.8
2023-05-14T14:55:51.312Z,36.6
2023-05-14T14:57:50.463Z,36.4
2023-05-14T14:59:49.594Z,36.7
2023-05-14T15:03:51.259Z,36.7
2023-05-14T15:05:50.348Z,36.7
2023-05-14T15:06:51.606Z,36.9
2023-05-14T15:08:50.784Z,36.6
2023-05-14T15:14:51.545Z,36.3
2023-05-14T15:16:51.243Z,36.4
2023-05-14T15:18:49.855Z,37.2
2023-05-14T15:20:48.971Z,37.4
2023-05-14T15:22:48.156Z,37.8
2023-05-14T15:24:47.287Z,38.1
2023-05-14T15:26:46.449Z,38.4
2023-05-14T15:28:48.966Z,39.6
2023-05-14T15:30:48.121Z,41.9
2023-05-14T15:32:47.363Z,44.3
2023-05-14T15:34:46.457Z,44.8
2023-05-14T15:36:45.600Z,46.1
2023-05-14T15:38:44.759Z,46.8
2023-05-14T15:40:43.957Z,47
2023-05-14T15:42:46.450Z,47.1
2023-05-14T15:44:45.624Z,45.3
2023-05-14T15:46:44.981Z,43.1
2023-05-14T15:48:43.995Z,43.1
2023-05-14T15:50:43.178Z,44.1
2023-05-14T15:52:42.345Z,45.1
2023-05-14T15:54:43.052Z,45.8
2023-05-14T15:58:44.728Z,48
2023-05-14T16:00:43.897Z,48.5
2023-05-14T16:01:45.193Z,48.6
2023-05-14T16:05:43.568Z,47.5
2023-05-14T16:07:42.803Z,46.5
2023-05-14T16:09:45.310Z,46
2023-05-14T16:11:44.510Z,45.6
2023-05-14T16:35:38.608Z,50.5
2023-05-14T16:41:39.667Z,50.2
2023-05-14T16:43:38.964Z,50.2
2023-05-14T16:45:38.204Z,50.3
2023-05-14T16:47:37.504Z,50.6
2023-05-14T16:51:39.316Z,53
2023-05-14T16:53:38.572Z,53.9
2023-05-14T16:55:37.858Z,55.6
2023-05-14T16:56:39.169Z,56.2
2023-05-14T16:58:38.432Z,56.9
2023-05-14T17:00:37.678Z,57.9
2023-05-14T17:02:36.980Z,58.1
2023-05-14T17:04:39.582Z,59
2023-05-14T17:06:39.336Z,59.4
2023-05-14T17:08:38.647Z,59.9
2023-05-14T17:12:37.188Z,67
2023-05-14T17:16:35.749Z,72.6
2023-05-14T17:18:38.386Z,76.9
2023-05-14T17:20:37.699Z,78.6
2023-05-14T17:22:36.977Z,82.9
2023-05-14T17:28:34.867Z,89.8
2023-05-14T17:36:35.437Z,93.3
2023-05-14T17:38:34.755Z,93.8
2023-05-14T17:44:32.700Z,95.5
2023-05-14T17:46:35.422Z,97.4
2023-05-14T17:48:34.722Z,98.2
2023-05-14T17:54:54.482Z,99.6
2023-05-14T17:56:53.853Z,99.8
2023-05-14T18:00:55.903Z,99.9
2023-05-14T18:12:55.482Z,99.9
2023-05-14T18:22:52.778Z,99.9
2023-05-14T18:30:54.121Z,99.9
2023-05-14T18:36:52.654Z,99.9
2023-05-14T18:38:52.212Z,99.9
2023-05-14T18:40:55.107Z,99.9
2023-05-14T18:42:54.613Z,99.9
2023-05-14T18:44:54.149Z,99.9
2023-05-14T18:45:55.704Z,99.9
2023-05-14T18:51:54.339Z,99.9
2023-05-14T18:53:57.328Z,99.9
2023-05-14T18:57:56.476Z,99.9
2023-05-14T18:59:56.043Z,99.9
2023-05-14T19:01:55.721Z,99.9
2023-05-14T19:03:55.410Z,99.9
2023-05-14T19:05:54.836Z,99.9
2023-05-14T19:09:57.328Z,99.9
2023-05-14T19:13:56.484Z,99.9
2023-05-14T19:17:55.712Z,99.9
2023-05-14T19:19:55.283Z,99.9
2023-05-14T19:21:58.330Z,99.9
2023-05-14T19:23:57.908Z,99.9
2023-05-14T19:25:57.480Z,99.9
2023-05-14T19:31:56.585Z,99.9
2023-05-14T19:33:55.963Z,99.9
2023-05-14T19:37:58.527Z,99.9
2023-05-14T19:39:58.195Z,99.9
2023-05-14T19:40:59.718Z,99.9
2023-05-14T19:42:59.301Z,99.9
2023-05-14T19:44:58.920Z,99.9
2023-05-14T19:46:58.574Z,99.9
2023-05-14T19:49:01.580Z,99.9
2023-05-14T19:51:01.217Z,99.9
2023-05-14T19:53:00.835Z,99.9
2023-05-14T19:58:59.653Z,99.9
2023-05-14T20:03:02.500Z,99.9
2023-05-14T20:11:00.665Z,99.9
2023-05-14T20:13:00.283Z,99.9
2023-05-14T20:14:59.878Z,99.9
2023-05-14T20:17:02.948Z,99.9
2023-05-14T20:19:02.601Z,99.9
2023-05-14T20:21:02.105Z,99.9
2023-05-14T20:23:01.694Z,99.9
2023-05-14T20:33:03.179Z,99.9
2023-05-14T20:35:02.735Z,99.9
2023-05-14T20:36:04.264Z,99.9
2023-05-14T20:38:03.860Z,99.9
2023-05-14T20:40:03.528Z,99.9
2023-05-14T20:42:03.132Z,99.9
2023-05-14T20:44:06.131Z,99.9
2023-05-14T20:52:04.660Z,99.9
2023-05-14T20:56:03.820Z,99.9
2023-05-14T21:00:06.519Z,99.9
2023-05-14T21:02:06.208Z,99.9
2023-05-14T21:04:05.892Z,99.9
2023-05-14T21:06:05.365Z,99.9
2023-05-14T21:08:05.006Z,99.9
2023-05-14T21:10:04.675Z,99.9
2023-05-14T21:12:07.701Z,99.9
2023-05-14T21:14:07.293Z,99.9
2023-05-14T21:16:07.025Z,99.9
2023-05-14T21:20:06.251Z,99.9
2023-05-14T21:22:05.881Z,99.9
2023-05-14T21:24:05.511Z,99.9
2023-05-14T21:26:08.590Z,99.9
2023-05-14T21:28:08.232Z,99.9
2023-05-14T21:30:07.912Z,99.9
2023-05-14T21:32:29.494Z,99.9
2023-05-14T21:34:30.533Z,99.9
2023-05-14T21:36:28.733Z,99.9
2023-05-14T21:38:33.319Z,99.9
2023-05-14T21:40:32.952Z,99.9
2023-05-14T21:42:32.659Z,99.9
2023-05-14T21:50:31.352Z,99.9
2023-05-14T21:54:34.101Z,99.9
2023-05-14T21:56:33.744Z,99.9
2023-05-14T22:00:33.081Z,99.9
2023-05-14T22:02:32.754Z,99.9
2023-05-14T22:04:32.424Z,99.9
2023-05-14T22:06:35.443Z,99.9
2023-05-14T22:08:35.111Z,99.9
2023-05-14T22:10:34.845Z,99.9
2023-05-14T22:12:34.498Z,99.9
2023-05-14T22:14:34.163Z,99.9
2023-05-14T22:16:33.849Z,99.9
2023-05-14T22:18:33.549Z,99.9
2023-05-14T22:20:36.572Z,99.9
2023-05-14T22:22:36.292Z,99.9
2023-05-14T22:24:35.943Z,99.9
2023-05-14T22:25:37.520Z,99.9
2023-05-14T22:41:38.330Z,99.9
2023-05-14T22:43:38.040Z,99.9
2023-05-14T22:45:37.703Z,99.9
2023-05-14T22:47:40.800Z,99.9
2023-05-14T22:49:40.438Z,99.9
2023-05-14T22:51:40.191Z,99.9
2023-05-14T22:53:39.830Z,99.9
2023-05-14T22:55:39.518Z,99.9
2023-05-14T22:57:39.226Z,99.9
2023-05-14T22:59:38.904Z,99.9
2023-05-14T23:01:42.037Z,99.9
2023-05-14T23:03:41.694Z,99.9
2023-05-14T23:05:41.394Z,99.9
2023-05-14T23:07:41.080Z,99.9
2023-05-14T23:15:43.356Z,99.9
2023-05-14T23:17:43.146Z,99.9
2023-05-14T23:19:42.795Z,99.9
2023-05-14T23:20:44.295Z,99.9
2023-05-14T23:26:43.408Z,99.9
2023-05-14T23:28:46.534Z,99.9
2023-05-14T23:30:46.227Z,99.9
2023-05-14T23:32:45.989Z,99.9
2023-05-14T23:36:45.396Z,99.9
2023-05-14T23:40:44.840Z,99.9
2023-05-14T23:46:47.359Z,99.9
2023-05-14T23:52:46.496Z,99.9
2023-05-14T23:54:46.212Z,99.9
2023-05-14T23:56:49.276Z,99.9
